sensor_id;sensor_type;location;lat;lon;timestamp;P1;durP1;ratioP1;P2;durP2;ratioP2
27740;SDS011;15134;48.768;9.184;2023-02-21T00:01:55;832.60;;;694.77;;
27740;SDS011;15134;48.768;9.184;2023-02-21T00:04:39;835.00;;;700.93;;
27740;SDS011;15134;48.768;9.184;2023-02-21T00:07:24;834.35;;;694.20;;
27740;SDS011;15134;48.768;9.184;2023-02-21T00:10:11;831.97;;;691.13;;
27740;SDS011;15134;48.768;9.184;2023-02-21T00:12:56;832.78;;;693.95;;
27740;SDS011;15134;48.768;9.184;2023-02-21T00:15:41;832.45;;;691.13;;
27740;SDS011;15134;48.768;9.184;2023-02-21T00:18:25;833.85;;;695.20;;
27740;SDS011;15134;48.768;9.184;2023-02-21T00:21:10;831.78;;;690.50;;
27740;SDS011;15134;48.768;9.184;2023-02-21T00:23:54;831.42;;;687.67;;
27740;SDS011;15134;48.768;9.184;2023-02-21T00:26:39;834.40;;;695.33;;
27740;SDS011;15134;48.768;9.184;2023-02-21T00:29:25;832.63;;;693.03;;
27740;SDS011;15134;48.768;9.184;2023-02-21T00:32:09;830.47;;;684.87;;
27740;SDS011;15134;48.768;9.184;2023-02-21T00:34:54;834.65;;;695.92;;
27740;SDS011;15134;48.768;9.184;2023-02-21T00:37:38;831.28;;;685.50;;
27740;SDS011;15134;48.768;9.184;2023-02-21T00:40:22;833.58;;;693.03;;
27740;SDS011;15134;48.768;9.184;2023-02-21T00:43:06;830.33;;;685.85;;
27740;SDS011;15134;48.768;9.184;2023-02-21T00:45:51;832.85;;;686.17;;
27740;SDS011;15134;48.768;9.184;2023-02-21T00:48:35;831.78;;;691.88;;
27740;SDS011;15134;48.768;9.184;2023-02-21T00:51:19;834.13;;;690.97;;
27740;SDS011;15134;48.768;9.184;2023-02-21T00:54:03;833.63;;;691.40;;
27740;SDS011;15134;48.768;9.184;2023-02-21T00:56:47;832.42;;;690.63;;
27740;SDS011;15134;48.768;9.184;2023-02-21T00:59:32;833.08;;;692.53;;
27740;SDS011;15134;48.768;9.184;2023-02-21T01:02:16;831.28;;;689.28;;
27740;SDS011;15134;48.768;9.184;2023-02-21T01:05:00;831.45;;;688.30;;
27740;SDS011;15134;48.768;9.184;2023-02-21T01:07:45;833.88;;;692.50;;
27740;SDS011;15134;48.768;9.184;2023-02-21T01:10:29;831.13;;;687.63;;
27740;SDS011;15134;48.768;9.184;2023-02-21T01:13:13;835.03;;;695.33;;
27740;SDS011;15134;48.768;9.184;2023-02-21T01:15:58;831.75;;;692.58;;
27740;SDS011;15134;48.768;9.184;2023-02-21T01:18:43;834.70;;;694.10;;
27740;SDS011;15134;48.768;9.184;2023-02-21T01:21:27;835.10;;;694.70;;
27740;SDS011;15134;48.768;9.184;2023-02-21T01:24:12;834.53;;;699.25;;
27740;SDS011;15134;48.768;9.184;2023-02-21T01:26:59;836.70;;;703.65;;
27740;SDS011;15134;48.768;9.184;2023-02-21T01:29:47;833.03;;;687.85;;
27740;SDS011;15134;48.768;9.184;2023-02-21T01:32:31;834.83;;;693.20;;
27740;SDS011;15134;48.768;9.184;2023-02-21T01:35:16;832.42;;;693.97;;
27740;SDS011;15134;48.768;9.184;2023-02-21T01:38:00;832.10;;;693.45;;
27740;SDS011;15134;48.768;9.184;2023-02-21T01:40:45;833.55;;;689.22;;
27740;SDS011;15134;48.768;9.184;2023-02-21T01:43:29;831.13;;;688.60;;
27740;SDS011;15134;48.768;9.184;2023-02-21T01:46:15;831.03;;;689.08;;
27740;SDS011;15134;48.768;9.184;2023-02-21T01:49:03;833.75;;;693.22;;
27740;SDS011;15134;48.768;9.184;2023-02-21T01:51:54;831.03;;;690.03;;
27740;SDS011;15134;48.768;9.184;2023-02-21T01:54:41;830.97;;;687.13;;
27740;SDS011;15134;48.768;9.184;2023-02-21T01:57:30;832.47;;;689.47;;
27740;SDS011;15134;48.768;9.184;2023-02-21T02:00:15;832.28;;;694.42;;
27740;SDS011;15134;48.768;9.184;2023-02-21T02:03:02;832.33;;;694.28;;
27740;SDS011;15134;48.768;9.184;2023-02-21T02:05:48;829.33;;;687.17;;
27740;SDS011;15134;48.768;9.184;2023-02-21T02:08:38;827.92;;;687.10;;
27740;SDS011;15134;48.768;9.184;2023-02-21T02:17:59;830.90;;;692.05;;
27740;SDS011;15134;48.768;9.184;2023-02-21T02:20:43;828.85;;;686.08;;
27740;SDS011;15134;48.768;9.184;2023-02-21T02:40:18;829.70;;;687.85;;
27740;SDS011;15134;48.768;9.184;2023-02-21T02:42:59;830.03;;;686.65;;
27740;SDS011;15134;48.768;9.184;2023-02-21T02:48:15;825.75;;;679.22;;
27740;SDS011;15134;48.768;9.184;2023-02-21T02:50:53;831.97;;;689.95;;
27740;SDS011;15134;48.768;9.184;2023-02-21T02:53:21;827.17;;;680.15;;
27740;SDS011;15134;48.768;9.184;2023-02-21T02:55:57;830.13;;;685.53;;
27740;SDS011;15134;48.768;9.184;2023-02-21T02:58:44;827.35;;;682.00;;
27740;SDS011;15134;48.768;9.184;2023-02-21T03:06:50;829.73;;;683.70;;
27740;SDS011;15134;48.768;9.184;2023-02-21T03:14:49;828.10;;;679.80;;
27740;SDS011;15134;48.768;9.184;2023-02-21T03:17:21;827.22;;;678.95;;
27740;SDS011;15134;48.768;9.184;2023-02-21T03:19:50;827.70;;;681.65;;
27740;SDS011;15134;48.768;9.184;2023-02-21T03:22:20;825.15;;;676.58;;
27740;SDS011;15134;48.768;9.184;2023-02-21T03:24:48;827.47;;;681.17;;
27740;SDS011;15134;48.768;9.184;2023-02-21T03:27:17;827.60;;;681.03;;
27740;SDS011;15134;48.768;9.184;2023-02-21T03:29:45;829.17;;;683.30;;
27740;SDS011;15134;48.768;9.184;2023-02-21T03:34:42;832.85;;;691.03;;
27740;SDS011;15134;48.768;9.184;2023-02-21T03:37:30;827.72;;;681.60;;
27740;SDS011;15134;48.768;9.184;2023-02-21T03:40:10;824.42;;;673.15;;
27740;SDS011;15134;48.768;9.184;2023-02-21T03:42:58;828.05;;;683.08;;
27740;SDS011;15134;48.768;9.184;2023-02-21T03:45:28;827.88;;;680.40;;
27740;SDS011;15134;48.768;9.184;2023-02-21T03:48:20;827.58;;;679.17;;
27740;SDS011;15134;48.768;9.184;2023-02-21T03:50:46;826.88;;;681.40;;
27740;SDS011;15134;48.768;9.184;2023-02-21T03:53:13;826.95;;;677.97;;
27740;SDS011;15134;48.768;9.184;2023-02-21T03:55:42;824.60;;;674.90;;
27740;SDS011;15134;48.768;9.184;2023-02-21T03:58:13;825.90;;;674.67;;
27740;SDS011;15134;48.768;9.184;2023-02-21T04:00:39;825.45;;;676.75;;
27740;SDS011;15134;48.768;9.184;2023-02-21T04:03:05;825.72;;;678.03;;
27740;SDS011;15134;48.768;9.184;2023-02-21T04:05:37;824.50;;;669.17;;
27740;SDS011;15134;48.768;9.184;2023-02-21T04:08:03;824.22;;;672.00;;
27740;SDS011;15134;48.768;9.184;2023-02-21T04:10:31;827.63;;;675.95;;
27740;SDS011;15134;48.768;9.184;2023-02-21T04:12:57;828.38;;;679.65;;
27740;SDS011;15134;48.768;9.184;2023-02-21T04:15:23;827.00;;;679.27;;
27740;SDS011;15134;48.768;9.184;2023-02-21T04:17:49;825.85;;;678.67;;
27740;SDS011;15134;48.768;9.184;2023-02-21T04:20:14;825.50;;;676.80;;
27740;SDS011;15134;48.768;9.184;2023-02-21T04:22:45;828.47;;;681.03;;
27740;SDS011;15134;48.768;9.184;2023-02-21T04:25:12;830.45;;;684.63;;
27740;SDS011;15134;48.768;9.184;2023-02-21T04:27:48;824.60;;;670.33;;
27740;SDS011;15134;48.768;9.184;2023-02-21T04:30:13;828.20;;;677.30;;
27740;SDS011;15134;48.768;9.184;2023-02-21T04:32:39;823.83;;;672.27;;
27740;SDS011;15134;48.768;9.184;2023-02-21T04:35:09;822.00;;;660.30;;
27740;SDS011;15134;48.768;9.184;2023-02-21T04:37:35;834.10;;;667.47;;
27740;SDS011;15134;48.768;9.184;2023-02-21T04:40:01;834.85;;;668.88;;
27740;SDS011;15134;48.768;9.184;2023-02-21T04:42:30;832.45;;;667.17;;
27740;SDS011;15134;48.768;9.184;2023-02-21T04:44:55;826.00;;;665.88;;
27740;SDS011;15134;48.768;9.184;2023-02-21T04:47:21;823.47;;;665.17;;
27740;SDS011;15134;48.768;9.184;2023-02-21T04:49:47;826.95;;;671.35;;
27740;SDS011;15134;48.768;9.184;2023-02-21T04:52:16;824.72;;;671.65;;
27740;SDS011;15134;48.768;9.184;2023-02-21T04:54:45;821.92;;;668.63;;
27740;SDS011;15134;48.768;9.184;2023-02-21T04:57:11;828.03;;;670.25;;
27740;SDS011;15134;48.768;9.184;2023-02-21T04:59:38;831.40;;;673.50;;
27740;SDS011;15134;48.768;9.184;2023-02-21T05:02:06;834.17;;;676.73;;
27740;SDS011;15134;48.768;9.184;2023-02-21T05:04:34;831.38;;;675.47;;
27740;SDS011;15134;48.768;9.184;2023-02-21T05:07:00;831.95;;;677.00;;
27740;SDS011;15134;48.768;9.184;2023-02-21T05:09:26;834.97;;;669.92;;
27740;SDS011;15134;48.768;9.184;2023-02-21T05:11:52;833.03;;;673.42;;
27740;SDS011;15134;48.768;9.184;2023-02-21T05:14:18;839.73;;;672.53;;
27740;SDS011;15134;48.768;9.184;2023-02-21T05:16:44;829.33;;;667.70;;
27740;SDS011;15134;48.768;9.184;2023-02-21T05:19:10;832.73;;;677.50;;
27740;SDS011;15134;48.768;9.184;2023-02-21T05:21:36;828.58;;;676.05;;
27740;SDS011;15134;48.768;9.184;2023-02-21T05:24:03;828.97;;;672.60;;
27740;SDS011;15134;48.768;9.184;2023-02-21T05:26:32;828.45;;;673.33;;
27740;SDS011;15134;48.768;9.184;2023-02-21T05:29:00;831.75;;;678.90;;
27740;SDS011;15134;48.768;9.184;2023-02-21T05:31:25;829.35;;;667.92;;
27740;SDS011;15134;48.768;9.184;2023-02-21T05:33:52;831.83;;;674.45;;
27740;SDS011;15134;48.768;9.184;2023-02-21T05:36:18;834.30;;;671.88;;
27740;SDS011;15134;48.768;9.184;2023-02-21T05:38:45;830.03;;;671.67;;
27740;SDS011;15134;48.768;9.184;2023-02-21T05:41:15;829.60;;;672.72;;
27740;SDS011;15134;48.768;9.184;2023-02-21T05:43:42;832.00;;;676.95;;
27740;SDS011;15134;48.768;9.184;2023-02-21T05:48:46;826.95;;;667.65;;
27740;SDS011;15134;48.768;9.184;2023-02-21T05:51:12;827.28;;;672.30;;
27740;SDS011;15134;48.768;9.184;2023-02-21T05:53:39;825.10;;;667.33;;
27740;SDS011;15134;48.768;9.184;2023-02-21T05:56:04;826.17;;;668.85;;
27740;SDS011;15134;48.768;9.184;2023-02-21T05:58:30;826.33;;;662.60;;
27740;SDS011;15134;48.768;9.184;2023-02-21T06:00:56;822.65;;;661.17;;
27740;SDS011;15134;48.768;9.184;2023-02-21T06:03:22;823.30;;;661.92;;
27740;SDS011;15134;48.768;9.184;2023-02-21T06:05:47;823.63;;;667.33;;
27740;SDS011;15134;48.768;9.184;2023-02-21T06:08:13;824.17;;;668.97;;
27740;SDS011;15134;48.768;9.184;2023-02-21T06:10:39;824.90;;;662.42;;
27740;SDS011;15134;48.768;9.184;2023-02-21T06:13:05;824.45;;;665.88;;
27740;SDS011;15134;48.768;9.184;2023-02-21T06:15:30;823.60;;;661.13;;
27740;SDS011;15134;48.768;9.184;2023-02-21T06:17:56;820.13;;;652.47;;
27740;SDS011;15134;48.768;9.184;2023-02-21T06:20:22;821.37;;;655.93;;
27740;SDS011;15134;48.768;9.184;2023-02-21T06:22:47;821.13;;;658.20;;
27740;SDS011;15134;48.768;9.184;2023-02-21T06:25:13;818.72;;;654.38;;
27740;SDS011;15134;48.768;9.184;2023-02-21T06:27:39;821.45;;;661.85;;
27740;SDS011;15134;48.768;9.184;2023-02-21T06:30:05;820.90;;;661.15;;
27740;SDS011;15134;48.768;9.184;2023-02-21T06:32:32;818.78;;;656.50;;
27740;SDS011;15134;48.768;9.184;2023-02-21T06:34:58;821.17;;;656.17;;
27740;SDS011;15134;48.768;9.184;2023-02-21T06:37:23;822.78;;;658.88;;
27740;SDS011;15134;48.768;9.184;2023-02-21T06:39:49;817.07;;;651.20;;
27740;SDS011;15134;48.768;9.184;2023-02-21T06:42:15;819.57;;;654.70;;
27740;SDS011;15134;48.768;9.184;2023-02-21T06:44:43;819.05;;;651.42;;
27740;SDS011;15134;48.768;9.184;2023-02-21T06:47:09;821.92;;;657.60;;
27740;SDS011;15134;48.768;9.184;2023-02-21T06:49:35;819.33;;;653.53;;
27740;SDS011;15134;48.768;9.184;2023-02-21T06:52:01;824.13;;;658.07;;
27740;SDS011;15134;48.768;9.184;2023-02-21T06:54:26;816.03;;;648.70;;
27740;SDS011;15134;48.768;9.184;2023-02-21T06:56:54;813.58;;;642.00;;
27740;SDS011;15134;48.768;9.184;2023-02-21T06:59:20;814.58;;;643.15;;
27740;SDS011;15134;48.768;9.184;2023-02-21T07:01:46;815.88;;;648.22;;
27740;SDS011;15134;48.768;9.184;2023-02-21T07:04:12;822.70;;;662.10;;
27740;SDS011;15134;48.768;9.184;2023-02-21T07:06:38;822.97;;;664.50;;
27740;SDS011;15134;48.768;9.184;2023-02-21T07:09:03;819.80;;;656.45;;
27740;SDS011;15134;48.768;9.184;2023-02-21T07:11:30;823.50;;;663.60;;
27740;SDS011;15134;48.768;9.184;2023-02-21T07:13:57;824.03;;;664.13;;
27740;SDS011;15134;48.768;9.184;2023-02-21T07:16:23;825.42;;;668.55;;
27740;SDS011;15134;48.768;9.184;2023-02-21T07:18:50;824.53;;;664.97;;
27740;SDS011;15134;48.768;9.184;2023-02-21T07:21:16;819.60;;;658.60;;
27740;SDS011;15134;48.768;9.184;2023-02-21T07:23:43;828.88;;;669.65;;
27740;SDS011;15134;48.768;9.184;2023-02-21T07:26:09;829.10;;;668.63;;
27740;SDS011;15134;48.768;9.184;2023-02-21T07:28:36;828.27;;;676.80;;
27740;SDS011;15134;48.768;9.184;2023-02-21T07:31:01;829.40;;;675.65;;
27740;SDS011;15134;48.768;9.184;2023-02-21T07:33:31;827.38;;;673.05;;
27740;SDS011;15134;48.768;9.184;2023-02-21T07:35:57;830.70;;;681.58;;
27740;SDS011;15134;48.768;9.184;2023-02-21T07:38:24;829.55;;;677.72;;
27740;SDS011;15134;48.768;9.184;2023-02-21T07:40:55;828.83;;;675.30;;
27740;SDS011;15134;48.768;9.184;2023-02-21T07:43:23;827.00;;;670.08;;
27740;SDS011;15134;48.768;9.184;2023-02-21T07:45:50;826.80;;;671.42;;
27740;SDS011;15134;48.768;9.184;2023-02-21T07:53:34;831.40;;;681.03;;
27740;SDS011;15134;48.768;9.184;2023-02-21T07:56:00;829.55;;;680.38;;
27740;SDS011;15134;48.768;9.184;2023-02-21T07:58:26;826.97;;;673.38;;
27740;SDS011;15134;48.768;9.184;2023-02-21T08:00:52;827.40;;;675.03;;
27740;SDS011;15134;48.768;9.184;2023-02-21T08:03:19;825.72;;;672.42;;
27740;SDS011;15134;48.768;9.184;2023-02-21T08:05:46;827.60;;;676.22;;
27740;SDS011;15134;48.768;9.184;2023-02-21T08:08:13;829.40;;;681.60;;
27740;SDS011;15134;48.768;9.184;2023-02-21T08:10:40;827.53;;;678.47;;
27740;SDS011;15134;48.768;9.184;2023-02-21T08:13:05;828.37;;;679.80;;
27740;SDS011;15134;48.768;9.184;2023-02-21T08:15:31;829.87;;;679.23;;
27740;SDS011;15134;48.768;9.184;2023-02-21T08:17:57;827.30;;;676.00;;
27740;SDS011;15134;48.768;9.184;2023-02-21T08:20:23;831.47;;;683.70;;
27740;SDS011;15134;48.768;9.184;2023-02-21T08:22:49;830.92;;;683.28;;
27740;SDS011;15134;48.768;9.184;2023-02-21T08:25:15;833.65;;;686.72;;
27740;SDS011;15134;48.768;9.184;2023-02-21T08:27:41;830.97;;;678.80;;
27740;SDS011;15134;48.768;9.184;2023-02-21T08:30:09;833.17;;;681.30;;
27740;SDS011;15134;48.768;9.184;2023-02-21T08:32:38;832.00;;;680.15;;
27740;SDS011;15134;48.768;9.184;2023-02-21T08:35:04;832.90;;;678.65;;
27740;SDS011;15134;48.768;9.184;2023-02-21T08:37:32;829.95;;;675.85;;
27740;SDS011;15134;48.768;9.184;2023-02-21T08:40:00;830.17;;;677.22;;
27740;SDS011;15134;48.768;9.184;2023-02-21T08:42:26;829.92;;;676.05;;
27740;SDS011;15134;48.768;9.184;2023-02-21T08:44:52;831.90;;;676.95;;
27740;SDS011;15134;48.768;9.184;2023-02-21T08:47:17;836.22;;;680.75;;
27740;SDS011;15134;48.768;9.184;2023-02-21T08:49:46;845.35;;;698.47;;
27740;SDS011;15134;48.768;9.184;2023-02-21T08:52:13;848.60;;;710.95;;
27740;SDS011;15134;48.768;9.184;2023-02-21T08:54:40;873.45;;;736.05;;
27740;SDS011;15134;48.768;9.184;2023-02-21T08:57:07;867.25;;;759.72;;
27740;SDS011;15134;48.768;9.184;2023-02-21T08:59:33;873.97;;;772.78;;
27740;SDS011;15134;48.768;9.184;2023-02-21T09:01:59;869.00;;;772.08;;
27740;SDS011;15134;48.768;9.184;2023-02-21T09:04:25;866.70;;;770.08;;
27740;SDS011;15134;48.768;9.184;2023-02-21T09:06:55;876.70;;;780.05;;
27740;SDS011;15134;48.768;9.184;2023-02-21T09:09:21;919.40;;;820.67;;
27740;SDS011;15134;48.768;9.184;2023-02-21T09:11:46;952.83;;;852.55;;
27740;SDS011;15134;48.768;9.184;2023-02-21T09:14:13;982.63;;;881.38;;
27740;SDS011;15134;48.768;9.184;2023-02-21T09:16:40;1007.90;;;905.80;;
27740;SDS011;15134;48.768;9.184;2023-02-21T09:19:07;1021.13;;;918.53;;
27740;SDS011;15134;48.768;9.184;2023-02-21T09:21:33;1028.50;;;925.13;;
27740;SDS011;15134;48.768;9.184;2023-02-21T09:24:00;1024.03;;;921.25;;
27740;SDS011;15134;48.768;9.184;2023-02-21T09:26:27;1012.67;;;910.38;;
27740;SDS011;15134;48.768;9.184;2023-02-21T09:28:55;1003.60;;;901.75;;
27740;SDS011;15134;48.768;9.184;2023-02-21T09:31:22;1000.15;;;894.85;;
27740;SDS011;15134;48.768;9.184;2023-02-21T09:33:50;993.20;;;887.38;;
27740;SDS011;15134;48.768;9.184;2023-02-21T09:36:16;981.47;;;877.77;;
27740;SDS011;15134;48.768;9.184;2023-02-21T09:38:49;973.00;;;871.50;;
27740;SDS011;15134;48.768;9.184;2023-02-21T09:41:15;967.23;;;865.97;;
27740;SDS011;15134;48.768;9.184;2023-02-21T09:43:44;962.22;;;861.38;;
27740;SDS011;15134;48.768;9.184;2023-02-21T09:46:13;964.35;;;863.75;;
27740;SDS011;15134;48.768;9.184;2023-02-21T09:48:43;960.30;;;860.30;;
27740;SDS011;15134;48.768;9.184;2023-02-21T09:51:09;954.95;;;855.47;;
27740;SDS011;15134;48.768;9.184;2023-02-21T09:53:38;952.55;;;853.13;;
27740;SDS011;15134;48.768;9.184;2023-02-21T09:58:54;947.35;;;848.25;;
27740;SDS011;15134;48.768;9.184;2023-02-21T10:01:24;948.17;;;849.05;;
27740;SDS011;15134;48.768;9.184;2023-02-21T10:04:19;959.97;;;860.47;;
27740;SDS011;15134;48.768;9.184;2023-02-21T10:07:09;966.80;;;867.00;;
27740;SDS011;15134;48.768;9.184;2023-02-21T10:10:01;960.60;;;860.70;;
27740;SDS011;15134;48.768;9.184;2023-02-21T10:19:01;967.90;;;868.07;;
27740;SDS011;15134;48.768;9.184;2023-02-21T10:21:24;976.93;;;876.93;;
27740;SDS011;15134;48.768;9.184;2023-02-21T10:23:55;977.03;;;877.05;;
27740;SDS011;15134;48.768;9.184;2023-02-21T10:26:29;991.15;;;890.38;;
27740;SDS011;15134;48.768;9.184;2023-02-21T10:28:59;986.20;;;885.75;;
27740;SDS011;15134;48.768;9.184;2023-02-21T10:31:36;982.95;;;882.67;;
27740;SDS011;15134;48.768;9.184;2023-02-21T10:34:20;981.05;;;880.83;;
27740;SDS011;15134;48.768;9.184;2023-02-21T10:36:50;984.00;;;883.73;;
27740;SDS011;15134;48.768;9.184;2023-02-21T10:39:18;988.00;;;887.73;;
27740;SDS011;15134;48.768;9.184;2023-02-21T10:41:46;978.93;;;878.87;;
27740;SDS011;15134;48.768;9.184;2023-02-21T10:44:18;963.35;;;864.05;;
27740;SDS011;15134;48.768;9.184;2023-02-21T10:49:53;962.85;;;863.95;;
27740;SDS011;15134;48.768;9.184;2023-02-21T10:52:25;954.85;;;855.95;;
27740;SDS011;15134;48.768;9.184;2023-02-21T10:57:29;959.53;;;860.53;;
27740;SDS011;15134;48.768;9.184;2023-02-21T10:59:57;957.10;;;858.40;;
27740;SDS011;15134;48.768;9.184;2023-02-21T11:02:38;951.40;;;852.90;;
27740;SDS011;15134;48.768;9.184;2023-02-21T11:07:37;937.83;;;839.97;;
27740;SDS011;15134;48.768;9.184;2023-02-21T11:10:15;940.13;;;842.15;;
27740;SDS011;15134;48.768;9.184;2023-02-21T11:13:23;951.28;;;852.85;;
27740;SDS011;15134;48.768;9.184;2023-02-21T11:15:45;941.97;;;843.88;;
27740;SDS011;15134;48.768;9.184;2023-02-21T11:18:13;947.22;;;849.03;;
27740;SDS011;15134;48.768;9.184;2023-02-21T11:20:42;947.13;;;848.85;;
27740;SDS011;15134;48.768;9.184;2023-02-21T11:23:18;946.78;;;848.40;;
27740;SDS011;15134;48.768;9.184;2023-02-21T11:25:45;952.40;;;854.00;;
27740;SDS011;15134;48.768;9.184;2023-02-21T11:31:02;958.75;;;859.75;;
27740;SDS011;15134;48.768;9.184;2023-02-21T11:33:27;949.65;;;851.13;;
27740;SDS011;15134;48.768;9.184;2023-02-21T11:36:18;948.92;;;849.72;;
27740;SDS011;15134;48.768;9.184;2023-02-21T11:38:43;951.50;;;852.40;;
27740;SDS011;15134;48.768;9.184;2023-02-21T11:41:34;963.42;;;863.58;;
27740;SDS011;15134;48.768;9.184;2023-02-21T11:47:00;817.90;;;719.70;;
27740;SDS011;15134;48.768;9.184;2023-02-21T11:49:53;949.13;;;851.00;;
27740;SDS011;15134;48.768;9.184;2023-02-21T11:52:22;954.80;;;856.40;;
27740;SDS011;15134;48.768;9.184;2023-02-21T11:55:08;957.67;;;859.28;;
27740;SDS011;15134;48.768;9.184;2023-02-21T11:57:48;968.47;;;869.28;;
27740;SDS011;15134;48.768;9.184;2023-02-21T12:05:58;959.60;;;861.15;;
27740;SDS011;15134;48.768;9.184;2023-02-21T12:08:46;959.67;;;861.17;;
27740;SDS011;15134;48.768;9.184;2023-02-21T12:11:41;963.42;;;864.60;;
27740;SDS011;15134;48.768;9.184;2023-02-21T12:22:51;966.20;;;867.33;;
27740;SDS011;15134;48.768;9.184;2023-02-21T12:25:50;963.83;;;864.92;;
27740;SDS011;15134;48.768;9.184;2023-02-21T12:33:51;972.67;;;873.73;;
27740;SDS011;15134;48.768;9.184;2023-02-21T12:42:36;980.03;;;880.47;;
27740;SDS011;15134;48.768;9.184;2023-02-21T12:47:59;978.58;;;878.97;;
27740;SDS011;15134;48.768;9.184;2023-02-21T12:50:35;986.77;;;886.87;;
27740;SDS011;15134;48.768;9.184;2023-02-21T12:53:09;983.05;;;883.65;;
27740;SDS011;15134;48.768;9.184;2023-02-21T12:55:39;983.92;;;884.03;;
27740;SDS011;15134;48.768;9.184;2023-02-21T12:58:24;983.40;;;883.80;;
27740;SDS011;15134;48.768;9.184;2023-02-21T13:06:27;991.35;;;891.33;;
27740;SDS011;15134;48.768;9.184;2023-02-21T13:14:10;983.20;;;883.80;;
27740;SDS011;15134;48.768;9.184;2023-02-21T13:16:40;978.53;;;879.05;;
27740;SDS011;15134;48.768;9.184;2023-02-21T13:19:08;974.97;;;875.63;;
27740;SDS011;15134;48.768;9.184;2023-02-21T13:25:31;983.53;;;883.88;;
27740;SDS011;15134;48.768;9.184;2023-02-21T13:28:26;982.33;;;882.58;;
27740;SDS011;15134;48.768;9.184;2023-02-21T13:30:57;978.30;;;878.90;;
27740;SDS011;15134;48.768;9.184;2023-02-21T13:33:35;988.55;;;888.60;;
27740;SDS011;15134;48.768;9.184;2023-02-21T13:36:26;988.28;;;888.47;;
27740;SDS011;15134;48.768;9.184;2023-02-21T13:39:11;990.72;;;890.97;;
27740;SDS011;15134;48.768;9.184;2023-02-21T13:41:42;995.63;;;895.50;;
27740;SDS011;15134;48.768;9.184;2023-02-21T13:44:29;992.08;;;891.45;;
27740;SDS011;15134;48.768;9.184;2023-02-21T13:47:08;991.95;;;891.65;;
27740;SDS011;15134;48.768;9.184;2023-02-21T13:57:50;989.90;;;890.00;;
27740;SDS011;15134;48.768;9.184;2023-02-21T14:21:08;972.57;;;873.03;;
27740;SDS011;15134;48.768;9.184;2023-02-21T14:26:48;973.75;;;874.47;;
27740;SDS011;15134;48.768;9.184;2023-02-21T14:39:52;962.10;;;863.15;;
27740;SDS011;15134;48.768;9.184;2023-02-21T14:50:28;961.88;;;862.97;;
27740;SDS011;15134;48.768;9.184;2023-02-21T14:53:39;959.63;;;860.53;;
27740;SDS011;15134;48.768;9.184;2023-02-21T15:07:04;960.65;;;861.72;;
27740;SDS011;15134;48.768;9.184;2023-02-21T15:09:32;947.80;;;849.47;;
27740;SDS011;15134;48.768;9.184;2023-02-21T15:11:58;947.07;;;848.87;;
27740;SDS011;15134;48.768;9.184;2023-02-21T15:14:27;946.80;;;848.60;;
27740;SDS011;15134;48.768;9.184;2023-02-21T15:17:00;948.00;;;849.80;;
27740;SDS011;15134;48.768;9.184;2023-02-21T15:19:36;946.30;;;848.33;;
27740;SDS011;15134;48.768;9.184;2023-02-21T15:22:05;955.17;;;856.60;;
27740;SDS011;15134;48.768;9.184;2023-02-21T15:27:33;952.80;;;854.25;;
27740;SDS011;15134;48.768;9.184;2023-02-21T15:30:04;954.20;;;855.60;;
27740;SDS011;15134;48.768;9.184;2023-02-21T15:32:33;954.75;;;856.08;;
27740;SDS011;15134;48.768;9.184;2023-02-21T15:35:01;954.50;;;856.28;;
27740;SDS011;15134;48.768;9.184;2023-02-21T15:37:29;956.55;;;858.15;;
27740;SDS011;15134;48.768;9.184;2023-02-21T15:39:57;958.13;;;859.55;;
27740;SDS011;15134;48.768;9.184;2023-02-21T15:42:28;958.72;;;860.13;;
27740;SDS011;15134;48.768;9.184;2023-02-21T15:44:58;953.70;;;855.00;;
27740;SDS011;15134;48.768;9.184;2023-02-21T15:47:31;961.70;;;862.85;;
27740;SDS011;15134;48.768;9.184;2023-02-21T15:52:44;940.42;;;842.47;;
27740;SDS011;15134;48.768;9.184;2023-02-21T16:00:31;936.50;;;838.67;;
27740;SDS011;15134;48.768;9.184;2023-02-21T16:11:17;950.17;;;851.97;;
27740;SDS011;15134;48.768;9.184;2023-02-21T16:13:44;943.20;;;844.50;;
27740;SDS011;15134;48.768;9.184;2023-02-21T16:16:10;945.38;;;847.00;;
27740;SDS011;15134;48.768;9.184;2023-02-21T16:18:36;942.63;;;844.72;;
27740;SDS011;15134;48.768;9.184;2023-02-21T16:21:04;938.97;;;841.33;;
27740;SDS011;15134;48.768;9.184;2023-02-21T16:23:32;939.00;;;841.40;;
27740;SDS011;15134;48.768;9.184;2023-02-21T16:28:38;935.45;;;837.85;;
27740;SDS011;15134;48.768;9.184;2023-02-21T16:31:06;942.05;;;844.05;;
27740;SDS011;15134;48.768;9.184;2023-02-21T16:33:38;940.40;;;842.43;;
27740;SDS011;15134;48.768;9.184;2023-02-21T16:36:05;941.17;;;843.30;;
27740;SDS011;15134;48.768;9.184;2023-02-21T16:38:33;945.03;;;846.92;;
27740;SDS011;15134;48.768;9.184;2023-02-21T16:40:58;950.10;;;851.75;;
27740;SDS011;15134;48.768;9.184;2023-02-21T16:43:25;945.75;;;847.58;;
27740;SDS011;15134;48.768;9.184;2023-02-21T16:45:53;945.90;;;847.40;;
27740;SDS011;15134;48.768;9.184;2023-02-21T16:48:21;943.03;;;843.83;;
27740;SDS011;15134;48.768;9.184;2023-02-21T16:50:57;940.20;;;841.10;;
27740;SDS011;15134;48.768;9.184;2023-02-21T16:53:29;941.90;;;842.90;;
27740;SDS011;15134;48.768;9.184;2023-02-21T16:55:55;945.33;;;846.73;;
27740;SDS011;15134;48.768;9.184;2023-02-21T17:00:52;944.55;;;846.08;;
27740;SDS011;15134;48.768;9.184;2023-02-21T17:03:20;940.25;;;842.00;;
27740;SDS011;15134;48.768;9.184;2023-02-21T17:05:46;934.08;;;836.28;;
27740;SDS011;15134;48.768;9.184;2023-02-21T17:08:12;935.85;;;838.17;;
27740;SDS011;15134;48.768;9.184;2023-02-21T17:10:38;937.38;;;839.47;;
27740;SDS011;15134;48.768;9.184;2023-02-21T17:13:04;930.92;;;833.42;;
27740;SDS011;15134;48.768;9.184;2023-02-21T17:15:30;935.42;;;837.38;;
27740;SDS011;15134;48.768;9.184;2023-02-21T17:17:56;935.45;;;837.35;;
27740;SDS011;15134;48.768;9.184;2023-02-21T17:20:22;937.17;;;839.03;;
27740;SDS011;15134;48.768;9.184;2023-02-21T17:22:49;929.88;;;831.97;;
27740;SDS011;15134;48.768;9.184;2023-02-21T17:25:15;928.72;;;830.92;;
27740;SDS011;15134;48.768;9.184;2023-02-21T17:27:42;917.42;;;819.90;;
27740;SDS011;15134;48.768;9.184;2023-02-21T17:30:08;921.70;;;823.90;;
27740;SDS011;15134;48.768;9.184;2023-02-21T17:32:34;918.17;;;820.67;;
27740;SDS011;15134;48.768;9.184;2023-02-21T17:35:00;918.67;;;821.28;;
27740;SDS011;15134;48.768;9.184;2023-02-21T17:37:26;917.33;;;819.78;;
27740;SDS011;15134;48.768;9.184;2023-02-21T17:39:52;913.38;;;816.20;;
27740;SDS011;15134;48.768;9.184;2023-02-21T17:42:19;914.00;;;816.58;;
27740;SDS011;15134;48.768;9.184;2023-02-21T17:44:45;913.22;;;816.08;;